sensor_id;sensor_type;location;lat;lon;timestamp;P1;durP1;ratioP1;P2;durP2;ratioP2
72060;SDS011;59925;52.136;5.420;2022-11-15T00:00:52;28.00;;;11.53;;
72060;SDS011;59925;52.136;5.420;2022-11-15T00:03:20;29.58;;;11.95;;
72060;SDS011;59925;52.136;5.420;2022-11-15T00:05:48;28.92;;;12.02;;
72060;SDS011;59925;52.136;5.420;2022-11-15T00:08:15;27.95;;;11.38;;
72060;SDS011;59925;52.136;5.420;2022-11-15T00:10:42;30.90;;;11.98;;
72060;SDS011;59925;52.136;5.420;2022-11-15T00:13:19;27.63;;;11.90;;
72060;SDS011;59925;52.136;5.420;2022-11-15T00:15:45;31.23;;;12.82;;
72060;SDS011;59925;52.136;5.420;2022-11-15T00:18:12;30.33;;;11.55;;
72060;SDS011;59925;52.136;5.420;2022-11-15T00:20:40;32.03;;;12.85;;
72060;SDS011;59925;52.136;5.420;2022-11-15T00:23:06;33.67;;;12.50;;
72060;SDS011;59925;52.136;5.420;2022-11-15T00:25:33;40.47;;;14.20;;
72060;SDS011;59925;52.136;5.420;2022-11-15T00:27:59;39.92;;;14.27;;
72060;SDS011;59925;52.136;5.420;2022-11-15T00:30:26;41.22;;;13.82;;
72060;SDS011;59925;52.136;5.420;2022-11-15T00:32:53;31.40;;;12.63;;
72060;SDS011;59925;52.136;5.420;2022-11-15T00:35:20;35.53;;;13.95;;
72060;SDS011;59925;52.136;5.420;2022-11-15T00:37:47;31.97;;;13.57;;
72060;SDS011;59925;52.136;5.420;2022-11-15T00:40:14;39.70;;;13.57;;
72060;SDS011;59925;52.136;5.420;2022-11-15T00:42:41;46.28;;;14.20;;
72060;SDS011;59925;52.136;5.420;2022-11-15T00:45:08;40.33;;;13.88;;
72060;SDS011;59925;52.136;5.420;2022-11-15T00:47:35;35.72;;;13.65;;
72060;SDS011;59925;52.136;5.420;2022-11-15T00:50:01;41.63;;;14.57;;
72060;SDS011;59925;52.136;5.420;2022-11-15T00:52:28;45.90;;;16.52;;
72060;SDS011;59925;52.136;5.420;2022-11-15T00:54:54;47.15;;;13.93;;
72060;SDS011;59925;52.136;5.420;2022-11-15T00:57:21;40.22;;;14.38;;
72060;SDS011;59925;52.136;5.420;2022-11-15T00:59:47;54.08;;;15.38;;
72060;SDS011;59925;52.136;5.420;2022-11-15T01:02:13;42.33;;;14.70;;
72060;SDS011;59925;52.136;5.420;2022-11-15T01:04:40;47.63;;;15.63;;
72060;SDS011;59925;52.136;5.420;2022-11-15T01:07:06;45.33;;;15.07;;
72060;SDS011;59925;52.136;5.420;2022-11-15T01:09:32;38.67;;;15.05;;
72060;SDS011;59925;52.136;5.420;2022-11-15T01:11:59;43.97;;;15.13;;
72060;SDS011;59925;52.136;5.420;2022-11-15T01:14:25;36.03;;;13.67;;
72060;SDS011;59925;52.136;5.420;2022-11-15T01:16:52;45.28;;;15.00;;
72060;SDS011;59925;52.136;5.420;2022-11-15T01:19:18;39.33;;;14.70;;
72060;SDS011;59925;52.136;5.420;2022-11-15T01:21:45;43.25;;;16.23;;
72060;SDS011;59925;52.136;5.420;2022-11-15T01:24:14;39.80;;;15.68;;
72060;SDS011;59925;52.136;5.420;2022-11-15T01:26:40;36.70;;;14.27;;
72060;SDS011;59925;52.136;5.420;2022-11-15T01:29:07;39.70;;;14.95;;
72060;SDS011;59925;52.136;5.420;2022-11-15T01:31:33;34.92;;;13.20;;
72060;SDS011;59925;52.136;5.420;2022-11-15T01:34:01;37.13;;;14.40;;
72060;SDS011;59925;52.136;5.420;2022-11-15T01:36:27;36.35;;;13.88;;
72060;SDS011;59925;52.136;5.420;2022-11-15T01:38:54;38.57;;;13.43;;
72060;SDS011;59925;52.136;5.420;2022-11-15T01:41:23;41.33;;;13.85;;
72060;SDS011;59925;52.136;5.420;2022-11-15T01:43:55;36.85;;;14.55;;
72060;SDS011;59925;52.136;5.420;2022-11-15T01:49:03;48.63;;;14.73;;
72060;SDS011;59925;52.136;5.420;2022-11-15T01:51:36;36.13;;;13.90;;
72060;SDS011;59925;52.136;5.420;2022-11-15T01:54:04;41.80;;;13.82;;
72060;SDS011;59925;52.136;5.420;2022-11-15T01:56:36;33.65;;;14.80;;
72060;SDS011;59925;52.136;5.420;2022-11-15T01:59:11;34.53;;;13.45;;
72060;SDS011;59925;52.136;5.420;2022-11-15T02:01:38;38.03;;;14.57;;
72060;SDS011;59925;52.136;5.420;2022-11-15T02:04:07;33.53;;;13.50;;
72060;SDS011;59925;52.136;5.420;2022-11-15T02:06:38;34.45;;;13.95;;
72060;SDS011;59925;52.136;5.420;2022-11-15T02:09:06;35.60;;;14.05;;
72060;SDS011;59925;52.136;5.420;2022-11-15T02:11:33;33.70;;;13.77;;
72060;SDS011;59925;52.136;5.420;2022-11-15T02:13:59;38.47;;;15.60;;
72060;SDS011;59925;52.136;5.420;2022-11-15T02:27:49;32.47;;;13.27;;
72060;SDS011;59925;52.136;5.420;2022-11-15T02:33:13;36.50;;;13.75;;
72060;SDS011;59925;52.136;5.420;2022-11-15T02:41:04;35.65;;;15.18;;
72060;SDS011;59925;52.136;5.420;2022-11-15T02:43:39;37.50;;;15.60;;
72060;SDS011;59925;52.136;5.420;2022-11-15T02:49:27;34.25;;;13.82;;
72060;SDS011;59925;52.136;5.420;2022-11-15T02:51:57;37.00;;;14.65;;
72060;SDS011;59925;52.136;5.420;2022-11-15T02:54:25;36.35;;;14.10;;
72060;SDS011;59925;52.136;5.420;2022-11-15T02:56:55;32.17;;;15.33;;
72060;SDS011;59925;52.136;5.420;2022-11-15T03:13:36;31.00;;;13.73;;
72060;SDS011;59925;52.136;5.420;2022-11-15T03:16:19;27.08;;;13.15;;
72060;SDS011;59925;52.136;5.420;2022-11-15T03:19:28;28.00;;;13.35;;
72060;SDS011;59925;52.136;5.420;2022-11-15T03:22:03;28.80;;;13.75;;
72060;SDS011;59925;52.136;5.420;2022-11-15T03:24:33;33.53;;;13.67;;
72060;SDS011;59925;52.136;5.420;2022-11-15T03:27:02;30.73;;;13.23;;
72060;SDS011;59925;52.136;5.420;2022-11-15T03:29:32;30.15;;;14.25;;
72060;SDS011;59925;52.136;5.420;2022-11-15T03:32:03;25.08;;;12.85;;
72060;SDS011;59925;52.136;5.420;2022-11-15T03:34:41;30.13;;;13.57;;
72060;SDS011;59925;52.136;5.420;2022-11-15T03:37:13;30.90;;;13.67;;
72060;SDS011;59925;52.136;5.420;2022-11-15T03:39:42;32.70;;;13.50;;
72060;SDS011;59925;52.136;5.420;2022-11-15T03:42:13;32.17;;;14.15;;
72060;SDS011;59925;52.136;5.420;2022-11-15T03:47:51;28.95;;;13.35;;
72060;SDS011;59925;52.136;5.420;2022-11-15T03:50:24;25.57;;;13.10;;
72060;SDS011;59925;52.136;5.420;2022-11-15T03:52:51;26.27;;;13.23;;
72060;SDS011;59925;52.136;5.420;2022-11-15T03:55:20;27.38;;;12.93;;
72060;SDS011;59925;52.136;5.420;2022-11-15T03:57:48;28.67;;;13.07;;
72060;SDS011;59925;52.136;5.420;2022-11-15T04:00:19;27.40;;;13.70;;
72060;SDS011;59925;52.136;5.420;2022-11-15T04:02:45;30.33;;;14.17;;
72060;SDS011;59925;52.136;5.420;2022-11-15T04:05:12;26.08;;;13.23;;
72060;SDS011;59925;52.136;5.420;2022-11-15T04:07:38;29.30;;;13.20;;
72060;SDS011;59925;52.136;5.420;2022-11-15T04:10:05;26.27;;;12.60;;
72060;SDS011;59925;52.136;5.420;2022-11-15T04:12:33;25.33;;;12.48;;
72060;SDS011;59925;52.136;5.420;2022-11-15T04:15:20;30.60;;;13.17;;
72060;SDS011;59925;52.136;5.420;2022-11-15T04:17:52;26.80;;;13.82;;
72060;SDS011;59925;52.136;5.420;2022-11-15T04:20:22;25.33;;;12.48;;
72060;SDS011;59925;52.136;5.420;2022-11-15T04:25:58;29.05;;;12.63;;
72060;SDS011;59925;52.136;5.420;2022-11-15T04:28:27;22.47;;;12.20;;
72060;SDS011;59925;52.136;5.420;2022-11-15T04:30:53;23.05;;;12.32;;
72060;SDS011;59925;52.136;5.420;2022-11-15T04:33:20;25.70;;;12.82;;
72060;SDS011;59925;52.136;5.420;2022-11-15T04:35:47;23.55;;;12.18;;
72060;SDS011;59925;52.136;5.420;2022-11-15T04:38:34;20.75;;;12.57;;
72060;SDS011;59925;52.136;5.420;2022-11-15T04:41:01;22.43;;;12.07;;
72060;SDS011;59925;52.136;5.420;2022-11-15T04:43:28;24.80;;;13.02;;
72060;SDS011;59925;52.136;5.420;2022-11-15T04:45:55;27.17;;;13.40;;
72060;SDS011;59925;52.136;5.420;2022-11-15T04:48:21;26.65;;;12.75;;
72060;SDS011;59925;52.136;5.420;2022-11-15T04:50:48;27.15;;;11.73;;
72060;SDS011;59925;52.136;5.420;2022-11-15T04:53:15;23.50;;;12.57;;
72060;SDS011;59925;52.136;5.420;2022-11-15T04:55:44;24.10;;;12.45;;
72060;SDS011;59925;52.136;5.420;2022-11-15T04:58:11;25.55;;;13.32;;
72060;SDS011;59925;52.136;5.420;2022-11-15T05:00:37;24.30;;;12.10;;
72060;SDS011;59925;52.136;5.420;2022-11-15T05:03:05;21.30;;;11.88;;
72060;SDS011;59925;52.136;5.420;2022-11-15T05:05:50;24.43;;;12.07;;
72060;SDS011;59925;52.136;5.420;2022-11-15T05:08:16;23.35;;;12.32;;
72060;SDS011;59925;52.136;5.420;2022-11-15T05:10:43;27.67;;;13.57;;
72060;SDS011;59925;52.136;5.420;2022-11-15T05:13:09;25.33;;;13.05;;
72060;SDS011;59925;52.136;5.420;2022-11-15T05:15:35;21.33;;;11.50;;
72060;SDS011;59925;52.136;5.420;2022-11-15T05:18:02;28.07;;;13.17;;
72060;SDS011;59925;52.136;5.420;2022-11-15T05:20:28;23.58;;;12.07;;
72060;SDS011;59925;52.136;5.420;2022-11-15T05:22:54;23.48;;;12.68;;
72060;SDS011;59925;52.136;5.420;2022-11-15T05:25:24;23.92;;;12.15;;
72060;SDS011;59925;52.136;5.420;2022-11-15T05:27:50;22.65;;;11.45;;
72060;SDS011;59925;52.136;5.420;2022-11-15T05:30:17;21.90;;;11.93;;
72060;SDS011;59925;52.136;5.420;2022-11-15T05:32:43;21.00;;;11.65;;
72060;SDS011;59925;52.136;5.420;2022-11-15T05:35:17;23.55;;;13.02;;
72060;SDS011;59925;52.136;5.420;2022-11-15T05:37:47;27.27;;;12.52;;
72060;SDS011;59925;52.136;5.420;2022-11-15T05:40:14;24.92;;;12.05;;
72060;SDS011;59925;52.136;5.420;2022-11-15T05:42:41;27.40;;;12.93;;
72060;SDS011;59925;52.136;5.420;2022-11-15T05:45:07;26.02;;;12.10;;
72060;SDS011;59925;52.136;5.420;2022-11-15T05:47:35;26.48;;;13.52;;
72060;SDS011;59925;52.136;5.420;2022-11-15T05:50:04;20.13;;;12.07;;
72060;SDS011;59925;52.136;5.420;2022-11-15T05:52:32;23.75;;;12.55;;
72060;SDS011;59925;52.136;5.420;2022-11-15T05:55:02;23.43;;;11.63;;
72060;SDS011;59925;52.136;5.420;2022-11-15T05:57:30;24.27;;;11.90;;
72060;SDS011;59925;52.136;5.420;2022-11-15T05:59:57;27.45;;;12.23;;
72060;SDS011;59925;52.136;5.420;2022-11-15T06:02:24;22.75;;;11.93;;
72060;SDS011;59925;52.136;5.420;2022-11-15T06:04:50;22.02;;;12.10;;
72060;SDS011;59925;52.136;5.420;2022-11-15T06:07:17;24.57;;;12.17;;
72060;SDS011;59925;52.136;5.420;2022-11-15T06:09:43;24.17;;;12.55;;
72060;SDS011;59925;52.136;5.420;2022-11-15T06:12:09;33.38;;;12.85;;
72060;SDS011;59925;52.136;5.420;2022-11-15T06:14:36;19.70;;;11.30;;
72060;SDS011;59925;52.136;5.420;2022-11-15T06:17:02;23.00;;;12.95;;
72060;SDS011;59925;52.136;5.420;2022-11-15T06:19:36;24.57;;;13.50;;
72060;SDS011;59925;52.136;5.420;2022-11-15T06:22:02;27.73;;;13.80;;
72060;SDS011;59925;52.136;5.420;2022-11-15T06:24:28;22.58;;;13.25;;
72060;SDS011;59925;52.136;5.420;2022-11-15T06:26:55;24.70;;;12.70;;
72060;SDS011;59925;52.136;5.420;2022-11-15T06:29:21;25.13;;;13.57;;
72060;SDS011;59925;52.136;5.420;2022-11-15T06:31:48;23.53;;;12.27;;
72060;SDS011;59925;52.136;5.420;2022-11-15T06:34:14;25.40;;;12.30;;
72060;SDS011;59925;52.136;5.420;2022-11-15T06:36:40;26.95;;;12.70;;
72060;SDS011;59925;52.136;5.420;2022-11-15T06:39:07;21.83;;;12.02;;
72060;SDS011;59925;52.136;5.420;2022-11-15T06:41:34;24.25;;;12.30;;
72060;SDS011;59925;52.136;5.420;2022-11-15T06:44:01;21.50;;;11.60;;
72060;SDS011;59925;52.136;5.420;2022-11-15T06:46:28;26.58;;;12.55;;
72060;SDS011;59925;52.136;5.420;2022-11-15T06:48:55;28.77;;;12.70;;
72060;SDS011;59925;52.136;5.420;2022-11-15T06:51:21;25.38;;;13.30;;
72060;SDS011;59925;52.136;5.420;2022-11-15T06:53:47;26.58;;;12.07;;
72060;SDS011;59925;52.136;5.420;2022-11-15T06:56:14;21.93;;;12.00;;
72060;SDS011;59925;52.136;5.420;2022-11-15T06:58:40;24.15;;;11.77;;
72060;SDS011;59925;52.136;5.420;2022-11-15T07:01:08;26.45;;;12.65;;
72060;SDS011;59925;52.136;5.420;2022-11-15T07:03:38;23.00;;;11.82;;
72060;SDS011;59925;52.136;5.420;2022-11-15T07:06:06;23.25;;;11.63;;
72060;SDS011;59925;52.136;5.420;2022-11-15T07:08:34;22.37;;;11.40;;
72060;SDS011;59925;52.136;5.420;2022-11-15T07:11:02;26.48;;;11.93;;
72060;SDS011;59925;52.136;5.420;2022-11-15T07:13:30;25.67;;;13.13;;
72060;SDS011;59925;52.136;5.420;2022-11-15T07:16:02;19.50;;;11.82;;
72060;SDS011;59925;52.136;5.420;2022-11-15T07:18:29;26.40;;;13.07;;
72060;SDS011;59925;52.136;5.420;2022-11-15T07:20:59;26.77;;;13.17;;
72060;SDS011;59925;52.136;5.420;2022-11-15T07:23:26;27.58;;;12.82;;
72060;SDS011;59925;52.136;5.420;2022-11-15T07:25:53;24.45;;;12.88;;
72060;SDS011;59925;52.136;5.420;2022-11-15T07:28:19;25.95;;;12.38;;
72060;SDS011;59925;52.136;5.420;2022-11-15T07:30:46;24.25;;;12.13;;
72060;SDS011;59925;52.136;5.420;2022-11-15T07:33:12;23.53;;;12.20;;
72060;SDS011;59925;52.136;5.420;2022-11-15T07:35:38;23.23;;;12.00;;
72060;SDS011;59925;52.136;5.420;2022-11-15T07:38:05;23.70;;;12.65;;
72060;SDS011;59925;52.136;5.420;2022-11-15T07:40:31;21.45;;;11.63;;
72060;SDS011;59925;52.136;5.420;2022-11-15T07:42:59;22.70;;;10.55;;
72060;SDS011;59925;52.136;5.420;2022-11-15T07:45:26;20.97;;;10.70;;
72060;SDS011;59925;52.136;5.420;2022-11-15T07:47:53;20.80;;;11.07;;
72060;SDS011;59925;52.136;5.420;2022-11-15T07:50:24;19.35;;;11.55;;
72060;SDS011;59925;52.136;5.420;2022-11-15T07:52:55;19.27;;;10.35;;
72060;SDS011;59925;52.136;5.420;2022-11-15T07:55:23;21.15;;;10.55;;
72060;SDS011;59925;52.136;5.420;2022-11-15T07:57:50;18.73;;;10.07;;
72060;SDS011;59925;52.136;5.420;2022-11-15T08:00:16;21.52;;;10.10;;
72060;SDS011;59925;52.136;5.420;2022-11-15T08:02:44;18.73;;;10.48;;
72060;SDS011;59925;52.136;5.420;2022-11-15T08:05:11;21.80;;;9.70;;
72060;SDS011;59925;52.136;5.420;2022-11-15T08:07:37;18.40;;;10.40;;
72060;SDS011;59925;52.136;5.420;2022-11-15T08:10:04;19.90;;;9.57;;
72060;SDS011;59925;52.136;5.420;2022-11-15T08:12:33;20.75;;;10.05;;
72060;SDS011;59925;52.136;5.420;2022-11-15T08:15:00;19.42;;;9.98;;
72060;SDS011;59925;52.136;5.420;2022-11-15T08:17:26;18.92;;;9.75;;
72060;SDS011;59925;52.136;5.420;2022-11-15T08:19:52;20.63;;;9.32;;
72060;SDS011;59925;52.136;5.420;2022-11-15T08:22:19;22.10;;;10.57;;
72060;SDS011;59925;52.136;5.420;2022-11-15T08:24:45;17.15;;;9.57;;
72060;SDS011;59925;52.136;5.420;2022-11-15T08:27:12;18.17;;;9.75;;
72060;SDS011;59925;52.136;5.420;2022-11-15T08:32:09;15.63;;;8.70;;
72060;SDS011;59925;52.136;5.420;2022-11-15T08:34:37;19.50;;;10.07;;
72060;SDS011;59925;52.136;5.420;2022-11-15T08:37:04;19.52;;;8.88;;
72060;SDS011;59925;52.136;5.420;2022-11-15T08:39:30;16.45;;;9.23;;
72060;SDS011;59925;52.136;5.420;2022-11-15T08:41:57;13.48;;;7.82;;
72060;SDS011;59925;52.136;5.420;2022-11-15T08:44:24;18.85;;;9.02;;
72060;SDS011;59925;52.136;5.420;2022-11-15T08:46:50;15.47;;;8.37;;
72060;SDS011;59925;52.136;5.420;2022-11-15T08:49:16;15.68;;;8.52;;
72060;SDS011;59925;52.136;5.420;2022-11-15T08:51:44;18.00;;;9.02;;
72060;SDS011;59925;52.136;5.420;2022-11-15T08:54:10;16.88;;;9.43;;
72060;SDS011;59925;52.136;5.420;2022-11-15T08:56:36;14.93;;;9.05;;
72060;SDS011;59925;52.136;5.420;2022-11-15T08:59:03;16.70;;;9.00;;
72060;SDS011;59925;52.136;5.420;2022-11-15T09:01:29;18.48;;;9.45;;
72060;SDS011;59925;52.136;5.420;2022-11-15T09:03:56;21.83;;;10.55;;
72060;SDS011;59925;52.136;5.420;2022-11-15T09:06:22;16.73;;;8.75;;
72060;SDS011;59925;52.136;5.420;2022-11-15T09:08:48;17.20;;;9.05;;
72060;SDS011;59925;52.136;5.420;2022-11-15T09:11:15;19.03;;;8.50;;
72060;SDS011;59925;52.136;5.420;2022-11-15T09:13:44;16.05;;;8.45;;
72060;SDS011;59925;52.136;5.420;2022-11-15T09:16:10;15.50;;;9.27;;
72060;SDS011;59925;52.136;5.420;2022-11-15T09:18:38;14.02;;;8.07;;
72060;SDS011;59925;52.136;5.420;2022-11-15T09:21:04;17.20;;;8.57;;
72060;SDS011;59925;52.136;5.420;2022-11-15T09:23:31;15.10;;;8.17;;
72060;SDS011;59925;52.136;5.420;2022-11-15T09:25:58;19.33;;;8.10;;
72060;SDS011;59925;52.136;5.420;2022-11-15T09:28:29;15.82;;;8.20;;
72060;SDS011;59925;52.136;5.420;2022-11-15T09:30:58;15.05;;;8.85;;
72060;SDS011;59925;52.136;5.420;2022-11-15T09:33:25;15.23;;;7.85;;
72060;SDS011;59925;52.136;5.420;2022-11-15T09:35:52;16.50;;;7.40;;
72060;SDS011;59925;52.136;5.420;2022-11-15T09:38:19;15.52;;;7.93;;
72060;SDS011;59925;52.136;5.420;2022-11-15T09:40:48;14.73;;;7.38;;
72060;SDS011;59925;52.136;5.420;2022-11-15T09:44:07;13.27;;;6.82;;
72060;SDS011;59925;52.136;5.420;2022-11-15T09:49:08;16.40;;;6.90;;
72060;SDS011;59925;52.136;5.420;2022-11-15T09:51:39;15.80;;;6.28;;
72060;SDS011;59925;52.136;5.420;2022-11-15T10:03:14;8.80;;;4.73;;
72060;SDS011;59925;52.136;5.420;2022-11-15T10:05:43;11.07;;;5.30;;
72060;SDS011;59925;52.136;5.420;2022-11-15T10:11:05;10.93;;;5.18;;
72060;SDS011;59925;52.136;5.420;2022-11-15T10:14:02;10.13;;;4.93;;
72060;SDS011;59925;52.136;5.420;2022-11-15T10:16:44;7.93;;;5.40;;
72060;SDS011;59925;52.136;5.420;2022-11-15T10:19:24;7.82;;;4.60;;
72060;SDS011;59925;52.136;5.420;2022-11-15T10:24:58;7.63;;;3.92;;
72060;SDS011;59925;52.136;5.420;2022-11-15T10:27:52;5.53;;;3.00;;
72060;SDS011;59925;52.136;5.420;2022-11-15T10:30:19;6.63;;;3.13;;
72060;SDS011;59925;52.136;5.420;2022-11-15T10:32:47;7.28;;;2.92;;
72060;SDS011;59925;52.136;5.420;2022-11-15T10:35:16;6.40;;;2.80;;
72060;SDS011;59925;52.136;5.420;2022-11-15T10:37:45;6.45;;;2.72;;
72060;SDS011;59925;52.136;5.420;2022-11-15T10:40:22;6.50;;;2.80;;
72060;SDS011;59925;52.136;5.420;2022-11-15T10:45:35;4.55;;;2.47;;
72060;SDS011;59925;52.136;5.420;2022-11-15T10:50:41;4.80;;;2.30;;
72060;SDS011;59925;52.136;5.420;2022-11-15T10:55:49;3.50;;;1.90;;
72060;SDS011;59925;52.136;5.420;2022-11-15T10:58:25;7.03;;;2.90;;
72060;SDS011;59925;52.136;5.420;2022-11-15T11:00:54;6.68;;;2.60;;
72060;SDS011;59925;52.136;5.420;2022-11-15T11:06:10;3.20;;;2.00;;
72060;SDS011;59925;52.136;5.420;2022-11-15T11:08:38;5.10;;;2.23;;
72060;SDS011;59925;52.136;5.420;2022-11-15T11:11:06;4.13;;;1.90;;
72060;SDS011;59925;52.136;5.420;2022-11-15T11:13:37;3.38;;;2.13;;
72060;SDS011;59925;52.136;5.420;2022-11-15T11:18:48;3.17;;;1.67;;
72060;SDS011;59925;52.136;5.420;2022-11-15T11:21:26;4.50;;;1.70;;
72060;SDS011;59925;52.136;5.420;2022-11-15T11:27:13;4.93;;;1.65;;
72060;SDS011;59925;52.136;5.420;2022-11-15T11:32:40;4.78;;;1.55;;
72060;SDS011;59925;52.136;5.420;2022-11-15T11:35:24;3.13;;;1.53;;
72060;SDS011;59925;52.136;5.420;2022-11-15T11:38:11;6.18;;;1.70;;
72060;SDS011;59925;52.136;5.420;2022-11-15T11:51:56;4.82;;;1.77;;
72060;SDS011;59925;52.136;5.420;2022-11-15T11:54:43;6.03;;;1.85;;
72060;SDS011;59925;52.136;5.420;2022-11-15T11:57:17;6.60;;;1.50;;
72060;SDS011;59925;52.136;5.420;2022-11-15T12:00:00;3.47;;;1.40;;
72060;SDS011;59925;52.136;5.420;2022-11-15T12:02:39;2.70;;;1.07;;
72060;SDS011;59925;52.136;5.420;2022-11-15T12:05:10;4.15;;;1.30;;
72060;SDS011;59925;52.136;5.420;2022-11-15T12:07:43;2.28;;;1.08;;
72060;SDS011;59925;52.136;5.420;2022-11-15T12:13:00;3.53;;;1.40;;
72060;SDS011;59925;52.136;5.420;2022-11-15T12:15:42;3.67;;;0.83;;
72060;SDS011;59925;52.136;5.420;2022-11-15T12:18:12;4.00;;;0.80;;
72060;SDS011;59925;52.136;5.420;2022-11-15T12:20:42;4.95;;;0.88;;
72060;SDS011;59925;52.136;5.420;2022-11-15T12:23:20;4.70;;;0.80;;
72060;SDS011;59925;52.136;5.420;2022-11-15T12:25:52;3.08;;;0.60;;
72060;SDS011;59925;52.136;5.420;2022-11-15T12:28:39;2.43;;;0.67;;
72060;SDS011;59925;52.136;5.420;2022-11-15T12:34:29;3.92;;;0.75;;
72060;SDS011;59925;52.136;5.420;2022-11-15T12:38:08;3.83;;;0.82;;
72060;SDS011;59925;52.136;5.420;2022-11-15T12:45:41;2.60;;;0.75;;
72060;SDS011;59925;52.136;5.420;2022-11-15T12:58:47;2.72;;;1.02;;
72060;SDS011;59925;52.136;5.420;2022-11-15T13:06:46;3.10;;;0.77;;
72060;SDS011;59925;52.136;5.420;2022-11-15T13:11:55;3.50;;;0.50;;
72060;SDS011;59925;52.136;5.420;2022-11-15T13:19:46;2.70;;;0.80;;
72060;SDS011;59925;52.136;5.420;2022-11-15T13:22:25;3.97;;;0.90;;
72060;SDS011;59925;52.136;5.420;2022-11-15T13:25:14;3.83;;;0.85;;
72060;SDS011;59925;52.136;5.420;2022-11-15T13:27:47;3.78;;;1.13;;
72060;SDS011;59925;52.136;5.420;2022-11-15T13:30:25;4.82;;;1.20;;
72060;SDS011;59925;52.136;5.420;2022-11-15T13:32:53;4.22;;;1.00;;
72060;SDS011;59925;52.136;5.420;2022-11-15T13:35:28;4.80;;;0.97;;
72060;SDS011;59925;52.136;5.420;2022-11-15T13:37:56;2.97;;;1.13;;
72060;SDS011;59925;52.136;5.420;2022-11-15T13:42:53;7.80;;;1.27;;
72060;SDS011;59925;52.136;5.420;2022-11-15T13:45:20;3.38;;;0.93;;
72060;SDS011;59925;52.136;5.420;2022-11-15T13:47:51;5.50;;;0.90;;
72060;SDS011;59925;52.136;5.420;2022-11-15T13:50:27;2.45;;;0.80;;
72060;SDS011;59925;52.136;5.420;2022-11-15T13:53:00;4.15;;;1.02;;
72060;SDS011;59925;52.136;5.420;2022-11-15T13:55:29;5.70;;;1.00;;
72060;SDS011;59925;52.136;5.420;2022-11-15T13:58:02;3.33;;;1.00;;
72060;SDS011;59925;52.136;5.420;2022-11-15T14:00:34;4.37;;;0.80;;
72060;SDS011;59925;52.136;5.420;2022-11-15T14:03:12;5.40;;;1.10;;
72060;SDS011;59925;52.136;5.420;2022-11-15T14:05:40;2.58;;;0.95;;
72060;SDS011;59925;52.136;5.420;2022-11-15T14:10:42;2.63;;;0.90;;
72060;SDS011;59925;52.136;5.420;2022-11-15T14:13:26;3.30;;;0.90;;
72060;SDS011;59925;52.136;5.420;2022-11-15T14:15:54;2.47;;;0.63;;
72060;SDS011;59925;52.136;5.420;2022-11-15T14:18:40;4.43;;;1.17;;
72060;SDS011;59925;52.136;5.420;2022-11-15T14:21:12;4.32;;;0.98;;
72060;SDS011;59925;52.136;5.420;2022-11-15T14:23:38;2.53;;;0.70;;
72060;SDS011;59925;52.136;5.420;2022-11-15T14:26:05;3.83;;;0.60;;
72060;SDS011;59925;52.136;5.420;2022-11-15T14:28:37;6.43;;;1.00;;
72060;SDS011;59925;52.136;5.420;2022-11-15T14:31:09;1.92;;;1.10;;
72060;SDS011;59925;52.136;5.420;2022-11-15T14:33:39;2.80;;;1.05;;
72060;SDS011;59925;52.136;5.420;2022-11-15T14:36:10;3.85;;;0.75;;
72060;SDS011;59925;52.136;5.420;2022-11-15T14:38:41;3.83;;;0.77;;
72060;SDS011;59925;52.136;5.420;2022-11-15T14:41:18;3.83;;;0.93;;
72060;SDS011;59925;52.136;5.420;2022-11-15T14:43:45;4.35;;;0.75;;
72060;SDS011;59925;52.136;5.420;2022-11-15T14:46:12;4.05;;;0.70;;
72060;SDS011;59925;52.136;5.420;2022-11-15T14:48:38;4.63;;;0.80;;
72060;SDS011;59925;52.136;5.420;2022-11-15T14:51:11;4.67;;;0.60;;
72060;SDS011;59925;52.136;5.420;2022-11-15T14:53:47;5.97;;;1.00;;
72060;SDS011;59925;52.136;5.420;2022-11-15T14:56:14;2.90;;;0.75;;
72060;SDS011;59925;52.136;5.420;2022-11-15T14:58:42;4.53;;;0.60;;
72060;SDS011;59925;52.136;5.420;2022-11-15T15:01:10;3.22;;;0.60;;
72060;SDS011;59925;52.136;5.420;2022-11-15T15:03:49;4.33;;;1.00;;
72060;SDS011;59925;52.136;5.420;2022-11-15T15:06:18;4.93;;;0.70;;
72060;SDS011;59925;52.136;5.420;2022-11-15T15:08:45;1.88;;;0.60;;
72060;SDS011;59925;52.136;5.420;2022-11-15T15:11:15;2.08;;;0.75;;
72060;SDS011;59925;52.136;5.420;2022-11-15T15:13:46;2.22;;;0.65;;
72060;SDS011;59925;52.136;5.420;2022-11-15T15:16:13;3.63;;;0.70;;
72060;SDS011;59925;52.136;5.420;2022-11-15T15:18:39;4.63;;;0.50;;
72060;SDS011;59925;52.136;5.420;2022-11-15T15:21:15;3.50;;;0.50;;
72060;SDS011;59925;52.136;5.420;2022-11-15T15:23:45;1.52;;;0.43;;
72060;SDS011;59925;52.136;5.420;2022-11-15T15:26:12;2.70;;;0.50;;
72060;SDS011;59925;52.136;5.420;2022-11-15T15:28:38;4.00;;;0.50;;
72060;SDS011;59925;52.136;5.420;2022-11-15T15:31:05;2.38;;;0.60;;
72060;SDS011;59925;52.136;5.420;2022-11-15T15:33:32;1.80;;;0.50;;
72060;SDS011;59925;52.136;5.420;2022-11-15T15:35:59;3.17;;;0.57;;
72060;SDS011;59925;52.136;5.420;2022-11-15T15:38:25;4.80;;;0.57;;
72060;SDS011;59925;52.136;5.420;2022-11-15T15:40:52;3.00;;;0.60;;
72060;SDS011;59925;52.136;5.420;2022-11-15T15:43:18;4.88;;;0.60;;
72060;SDS011;59925;52.136;5.420;2022-11-15T15:45:45;1.55;;;0.80;;
72060;SDS011;59925;52.136;5.420;2022-11-15T15:48:15;5.97;;;0.77;;
72060;SDS011;59925;52.136;5.420;2022-11-15T15:50:43;1.33;;;0.50;;
72060;SDS011;59925;52.136;5.420;2022-11-15T15:53:11;4.63;;;0.47;;
72060;SDS011;59925;52.136;5.420;2022-11-15T15:55:38;2.42;;;0.50;;
72060;SDS011;59925;52.136;5.420;2022-11-15T15:58:05;2.83;;;0.75;;
72060;SDS011;59925;52.136;5.420;2022-11-15T16:00:34;2.95;;;0.50;;
72060;SDS011;59925;52.136;5.420;2022-11-15T16:03:00;1.58;;;0.55;;
72060;SDS011;59925;52.136;5.420;2022-11-15T16:05:26;2.50;;;0.40;;
72060;SDS011;59925;52.136;5.420;2022-11-15T16:07:53;7.20;;;0.63;;
72060;SDS011;59925;52.136;5.420;2022-11-15T16:10:26;3.60;;;0.70;;
72060;SDS011;59925;52.136;5.420;2022-11-15T16:12:57;1.85;;;0.60;;
72060;SDS011;59925;52.136;5.420;2022-11-15T16:15:25;2.97;;;0.70;;
72060;SDS011;59925;52.136;5.420;2022-11-15T16:17:54;2.60;;;0.70;;
72060;SDS011;59925;52.136;5.420;2022-11-15T16:20:43;3.90;;;0.88;;
72060;SDS011;59925;52.136;5.420;2022-11-15T16:23:16;2.08;;;0.60;;
72060;SDS011;59925;52.136;5.420;2022-11-15T16:25:44;4.05;;;1.02;;
72060;SDS011;59925;52.136;5.420;2022-11-15T16:28:20;4.18;;;0.93;;
72060;SDS011;59925;52.136;5.420;2022-11-15T16:31:00;4.33;;;0.70;;
72060;SDS011;59925;52.136;5.420;2022-11-15T16:33:29;3.90;;;0.65;;
72060;SDS011;59925;52.136;5.420;2022-11-15T16:35:56;1.75;;;0.77;;
72060;SDS011;59925;52.136;5.420;2022-11-15T16:38:23;2.67;;;0.80;;
72060;SDS011;59925;52.136;5.420;2022-11-15T16:40:50;2.67;;;0.77;;
72060;SDS011;59925;52.136;5.420;2022-11-15T16:43:16;3.60;;;0.50;;
72060;SDS011;59925;52.136;5.420;2022-11-15T16:45:43;2.42;;;0.75;;
72060;SDS011;59925;52.136;5.420;2022-11-15T16:48:17;3.58;;;1.00;;
72060;SDS011;59925;52.136;5.420;2022-11-15T16:50:54;2.15;;;0.50;;
72060;SDS011;59925;52.136;5.420;2022-11-15T16:53:22;4.65;;;0.65;;
72060;SDS011;59925;52.136;5.420;2022-11-15T16:55:49;4.77;;;0.70;;
72060;SDS011;59925;52.136;5.420;2022-11-15T16:58:15;4.10;;;0.93;;
72060;SDS011;59925;52.136;5.420;2022-11-15T17:00:42;2.47;;;0.93;;
72060;SDS011;59925;52.136;5.420;2022-11-15T17:03:08;3.60;;;0.77;;
72060;SDS011;59925;52.136;5.420;2022-11-15T17:05:35;2.03;;;0.70;;